• ยินดีต้อนรับทุกท่านเข้าสู่ไทยซีร้อยสามสิบครับ, หากท่านพบปัญหาการใช้งานเว็บไซต์ของเรา
    หรือต้องการเสนอแนะประการใดสามารถโพสแจ้งได้ที่ ฟอรั่ม: Contact us/help info ,ขอบคุณครับ.
    แจ้งข่าวสารการอับเดทฟอรั่ม Thaic-130


    Live support: SKYPIG / Lt.Col.Tirapong Kongsomrit, e-mail: kongsomrit@yahoo.com
    กรุณาปิด โปรแกรมบล๊อกโฆษณา เพราะเราอยู่ได้ด้วยโฆษณาที่ท่านเห็น
    Please close the adblock program. Because we can live with the ads you see

SEP 2012

skypig

Administrator
6 SEP go to wadd บาหลี
WADD 050630Z 13015KT 9999 SCT018 29/22 Q1011 NOSIG


TAF WADD 050500Z 0506/0606 13015KT 9999 SCT018
BECMG 0510/0512 12010KT


WSSS 050630Z 22006KT 180V260 9999 FEW012 SCT015 BKN270 26/24 Q1010 NOSIG

TAF WSSS 050500Z 0506/0612 22007KT 9999 FEW015 SCT020
TEMPO 0603/0606 3000 TSRA FEW012CB BKN015


TAF WARR 050300Z 0506/0606 12012KT 9999 FEW020
BECMG 0514/0516 26005KT 8000
TEMPO 0521/0524 5000 HZ
BECMG 0601/0603 10008KT 9000 FEW020
 

skypig

Administrator
ราคาค่าตั๋ว 5 กันยายน 2012
กรุงเทพ- บาหลี = 8770 บาท
บาหลี-กรุงเทพ = 2,389,000 รูเปีย
 

Attachments

Maverick231

Senior Member
Please try again 2013 :Emo_korea_109.gif:

กดรีเฟรชอยู่ประมาณ 15 รอบ :Emo_korea_079.gif:

เอวังด้วยประการนี้ ปีหน้าว่ากันใหม่ครับ
 

skypig

Administrator
VOMM 200240Z 21010KT 7000 FEW020 29/25 Q1008 NOSIG

TAF VOMM 192100Z 2000/2106 24010KT 6000 SCT020 SCT100
BECMG 2010/2011 16010KT
TEMPO 2010/2018 SCT020 FEW025CB BKN100
landing time BECMG 2021/2022 24010KT
 

skypig

Administrator
คืนนี้ใครว่าง ช่วยทดลองใช้
http://www.flightradar24.com/#
ด้วยนะครับ
ติดตาม AIQ3760 1935L vtbs-vomm 2245L เวลาไทย
ขากลับ AIQ3761 2330 vomm-vtbs 0300 เวลาไทย

ช่วยถ่ายรูป แล้วลงให้ด้วยครับ จะได้นำมาบอกลูกที่บ้าน ว่าเล่นโปรแกรมนี้ยังไง
เวลาที่พี่ไปบิน เค้าจะได้ Follow Flight ได้
 

skypig

Administrator
VTBS 201130Z 35007KT 9000 -TSRA FEW020CB SCT035 BKN110 27/24 Q1007 TS VER AD NOSIG ฝนฉ
 

fly_me

Super Moderator
เป็น ap ที่เจ๋งมากครับพี่หมู ผมก็ใช้อยู่ครับกับ มือถือครับ
 

★โต้ ชาวร็อค★

Administrator
Staff member
ยังไม่ได้โหลดเลยครับพี่หมู ขออภัยครับ ต่อคิวเด็กเล่น iPad ยันหลับ

:Emo_korea_030.gif::Emo_korea_030.gif:
 



Flag Counter

กรุณาปิด โปรแกรมบล๊อกโฆษณา เพราะเราอยู่ได้ด้วยโฆษณาที่ท่านเห็น
Please close the adblock program. Because we can live with the ads you see
ขอขอบพระคุณ

พลอากาศเอก อมฤต จารยะพันธ์
พลอากาศโท ปรีชาพล ผุสสราค์มาลัย
กัปตันสุทิพย์ สิริสรรพ (การบินไทย)
กัปตันยุทธการ ปุรินทราภิบาล (ไทยแอร์เอเชีย)
กัปตันราชันย์ สุดหล้า (ไทยแอร์เอเชีย)
นาวาอากาศโทสุรินทร์ คอทอง
นาวาอากาศตรีขวัญ สุภรสุข
คุณพงษ์ พินิจ นสพ.ไทยรัฐ

เว็บไซต์ "www.thaiC-130.net" จัดทำขึ้นเมื่อ 22 กุมภาพันธ์ 2551
ความสมบูรณ์ของเนื้อหา ยังจำเป็นต้องได้รับการปรับปรุง หากท่านสนใจที่จะร่วมสนับสนุนให้ดียิ่งขึ้น กรุณาติดต่อมายังผู้จัดทำ จะเป็นพระคุณอย่างยิ่ง




Contact Me
Lt.Col.Tirapong Kongsomrit
kongsomrit@yahoo.com
www.thaic-130.net
Top